sensor_id;sensor_type;location;lat;lon;timestamp;P1;durP1;ratioP1;P2;durP2;ratioP2
20232;SDS011;37438;55.674;13.074;2023-02-11T00:02:27;69.40;;;13.55;;
20232;SDS011;37438;55.674;13.074;2023-02-11T00:05:34;69.38;;;17.70;;
20232;SDS011;37438;55.674;13.074;2023-02-11T00:08:39;76.90;;;15.95;;
20232;SDS011;37438;55.674;13.074;2023-02-11T00:11:43;89.82;;;17.83;;
20232;SDS011;37438;55.674;13.074;2023-02-11T00:14:48;78.40;;;16.48;;
20232;SDS011;37438;55.674;13.074;2023-02-11T00:17:52;98.03;;;17.77;;
20232;SDS011;37438;55.674;13.074;2023-02-11T00:20:56;77.13;;;17.73;;
20232;SDS011;37438;55.674;13.074;2023-02-11T00:24:01;98.65;;;18.88;;
20232;SDS011;37438;55.674;13.074;2023-02-11T00:27:05;69.32;;;16.17;;
20232;SDS011;37438;55.674;13.074;2023-02-11T00:30:10;74.47;;;16.60;;
20232;SDS011;37438;55.674;13.074;2023-02-11T00:33:15;80.18;;;19.17;;
20232;SDS011;37438;55.674;13.074;2023-02-11T00:36:23;80.65;;;19.65;;
20232;SDS011;37438;55.674;13.074;2023-02-11T00:39:29;84.53;;;19.52;;
20232;SDS011;37438;55.674;13.074;2023-02-11T00:42:34;88.28;;;18.17;;
20232;SDS011;37438;55.674;13.074;2023-02-11T00:45:40;88.00;;;18.58;;
20232;SDS011;37438;55.674;13.074;2023-02-11T00:48:44;89.90;;;17.08;;
20232;SDS011;37438;55.674;13.074;2023-02-11T00:51:49;92.70;;;19.60;;
20232;SDS011;37438;55.674;13.074;2023-02-11T00:54:53;113.88;;;21.85;;
20232;SDS011;37438;55.674;13.074;2023-02-11T00:57:58;104.25;;;22.05;;
20232;SDS011;37438;55.674;13.074;2023-02-11T01:01:03;89.32;;;18.58;;
20232;SDS011;37438;55.674;13.074;2023-02-11T01:04:07;90.07;;;20.45;;
20232;SDS011;37438;55.674;13.074;2023-02-11T01:07:12;94.00;;;21.15;;
20232;SDS011;37438;55.674;13.074;2023-02-11T01:10:17;107.88;;;21.30;;
20232;SDS011;37438;55.674;13.074;2023-02-11T01:13:21;95.37;;;19.17;;
20232;SDS011;37438;55.674;13.074;2023-02-11T01:16:27;90.10;;;18.35;;
20232;SDS011;37438;55.674;13.074;2023-02-11T01:19:31;105.93;;;18.73;;
20232;SDS011;37438;55.674;13.074;2023-02-11T01:22:36;94.30;;;19.98;;
20232;SDS011;37438;55.674;13.074;2023-02-11T01:25:42;88.72;;;17.20;;
20232;SDS011;37438;55.674;13.074;2023-02-11T01:28:47;86.47;;;18.13;;
20232;SDS011;37438;55.674;13.074;2023-02-11T01:31:52;91.93;;;23.02;;
20232;SDS011;37438;55.674;13.074;2023-02-11T01:34:56;82.63;;;16.30;;
20232;SDS011;37438;55.674;13.074;2023-02-11T01:38:01;98.70;;;19.75;;
20232;SDS011;37438;55.674;13.074;2023-02-11T01:41:06;78.60;;;16.60;;
20232;SDS011;37438;55.674;13.074;2023-02-11T01:44:23;74.85;;;15.65;;
20232;SDS011;37438;55.674;13.074;2023-02-11T01:47:29;84.75;;;17.75;;
20232;SDS011;37438;55.674;13.074;2023-02-11T01:50:34;86.80;;;16.63;;
20232;SDS011;37438;55.674;13.074;2023-02-11T01:53:40;73.45;;;13.55;;
20232;SDS011;37438;55.674;13.074;2023-02-11T01:57:04;89.07;;;13.07;;
20232;SDS011;37438;55.674;13.074;2023-02-11T02:00:34;70.00;;;14.25;;
20232;SDS011;37438;55.674;13.074;2023-02-11T02:03:42;66.97;;;13.65;;
20232;SDS011;37438;55.674;13.074;2023-02-11T02:06:50;92.40;;;13.90;;
20232;SDS011;37438;55.674;13.074;2023-02-11T02:10:03;66.82;;;11.98;;
20232;SDS011;37438;55.674;13.074;2023-02-11T02:13:12;53.05;;;11.63;;
20232;SDS011;37438;55.674;13.074;2023-02-11T02:16:18;60.38;;;11.68;;
20232;SDS011;37438;55.674;13.074;2023-02-11T02:19:31;61.97;;;10.10;;
20232;SDS011;37438;55.674;13.074;2023-02-11T02:26:16;42.65;;;10.32;;
20232;SDS011;37438;55.674;13.074;2023-02-11T02:39:52;47.55;;;8.00;;
20232;SDS011;37438;55.674;13.074;2023-02-11T02:42:57;51.20;;;8.30;;
20232;SDS011;37438;55.674;13.074;2023-02-11T02:46:14;42.38;;;7.10;;
20232;SDS011;37438;55.674;13.074;2023-02-11T02:49:22;44.97;;;6.85;;
20232;SDS011;37438;55.674;13.074;2023-02-11T02:52:34;40.13;;;7.95;;
20232;SDS011;37438;55.674;13.074;2023-02-11T02:56:03;53.50;;;8.80;;
20232;SDS011;37438;55.674;13.074;2023-02-11T03:13:28;52.65;;;7.72;;
20232;SDS011;37438;55.674;13.074;2023-02-11T03:16:36;48.42;;;6.70;;
20232;SDS011;37438;55.674;13.074;2023-02-11T03:19:43;38.63;;;6.45;;
20232;SDS011;37438;55.674;13.074;2023-02-11T03:22:55;41.70;;;7.45;;
20232;SDS011;37438;55.674;13.074;2023-02-11T03:26:07;34.40;;;5.93;;
20232;SDS011;37438;55.674;13.074;2023-02-11T03:32:49;38.42;;;5.22;;
20232;SDS011;37438;55.674;13.074;2023-02-11T03:36:02;39.47;;;5.70;;
20232;SDS011;37438;55.674;13.074;2023-02-11T03:39:11;31.50;;;4.50;;
20232;SDS011;37438;55.674;13.074;2023-02-11T03:42:19;33.47;;;5.90;;
20232;SDS011;37438;55.674;13.074;2023-02-11T03:45:27;28.38;;;4.70;;
20232;SDS011;37438;55.674;13.074;2023-02-11T03:48:37;38.65;;;5.55;;
20232;SDS011;37438;55.674;13.074;2023-02-11T03:51:47;33.28;;;5.15;;
20232;SDS011;37438;55.674;13.074;2023-02-11T03:54:56;27.50;;;4.47;;
20232;SDS011;37438;55.674;13.074;2023-02-11T03:58:02;38.50;;;4.80;;
20232;SDS011;37438;55.674;13.074;2023-02-11T04:01:08;32.00;;;4.95;;
20232;SDS011;37438;55.674;13.074;2023-02-11T04:04:13;44.20;;;5.13;;
20232;SDS011;37438;55.674;13.074;2023-02-11T04:07:17;53.80;;;9.30;;
20232;SDS011;37438;55.674;13.074;2023-02-11T04:10:22;50.42;;;7.65;;
20232;SDS011;37438;55.674;13.074;2023-02-11T04:13:26;29.70;;;5.50;;
20232;SDS011;37438;55.674;13.074;2023-02-11T04:16:31;40.57;;;6.33;;
20232;SDS011;37438;55.674;13.074;2023-02-11T04:19:35;46.28;;;6.13;;
20232;SDS011;37438;55.674;13.074;2023-02-11T04:22:40;40.28;;;5.90;;
20232;SDS011;37438;55.674;13.074;2023-02-11T04:25:44;32.38;;;4.43;;
20232;SDS011;37438;55.674;13.074;2023-02-11T04:28:49;35.55;;;4.95;;
20232;SDS011;37438;55.674;13.074;2023-02-11T04:31:54;37.30;;;5.70;;
20232;SDS011;37438;55.674;13.074;2023-02-11T04:38:03;26.65;;;5.18;;
20232;SDS011;37438;55.674;13.074;2023-02-11T04:41:08;47.92;;;7.85;;
20232;SDS011;37438;55.674;13.074;2023-02-11T04:44:12;22.58;;;5.28;;
20232;SDS011;37438;55.674;13.074;2023-02-11T04:47:17;23.05;;;4.22;;
20232;SDS011;37438;55.674;13.074;2023-02-11T04:50:22;18.83;;;3.40;;
20232;SDS011;37438;55.674;13.074;2023-02-11T04:53:26;24.17;;;3.78;;
20232;SDS011;37438;55.674;13.074;2023-02-11T04:56:31;18.73;;;3.95;;
20232;SDS011;37438;55.674;13.074;2023-02-11T04:59:35;19.85;;;4.68;;
20232;SDS011;37438;55.674;13.074;2023-02-11T05:02:39;18.80;;;4.53;;
20232;SDS011;37438;55.674;13.074;2023-02-11T05:05:44;21.30;;;4.55;;
20232;SDS011;37438;55.674;13.074;2023-02-11T05:08:49;20.35;;;3.33;;
20232;SDS011;37438;55.674;13.074;2023-02-11T05:11:53;26.80;;;4.53;;
20232;SDS011;37438;55.674;13.074;2023-02-11T05:14:57;26.55;;;4.90;;
20232;SDS011;37438;55.674;13.074;2023-02-11T05:18:02;19.92;;;4.25;;
20232;SDS011;37438;55.674;13.074;2023-02-11T05:21:07;24.83;;;3.05;;
20232;SDS011;37438;55.674;13.074;2023-02-11T05:24:17;19.58;;;3.63;;
20232;SDS011;37438;55.674;13.074;2023-02-11T05:27:22;20.63;;;3.35;;
20232;SDS011;37438;55.674;13.074;2023-02-11T05:30:26;21.42;;;3.70;;
20232;SDS011;37438;55.674;13.074;2023-02-11T05:33:31;23.02;;;3.97;;
20232;SDS011;37438;55.674;13.074;2023-02-11T05:36:36;22.90;;;3.78;;
20232;SDS011;37438;55.674;13.074;2023-02-11T05:39:40;20.15;;;4.88;;
20232;SDS011;37438;55.674;13.074;2023-02-11T05:42:45;22.83;;;3.85;;
20232;SDS011;37438;55.674;13.074;2023-02-11T05:45:50;19.83;;;4.10;;
20232;SDS011;37438;55.674;13.074;2023-02-11T05:48:55;18.55;;;2.83;;
20232;SDS011;37438;55.674;13.074;2023-02-11T05:51:59;35.58;;;5.88;;
20232;SDS011;37438;55.674;13.074;2023-02-11T05:55:04;24.98;;;3.88;;
20232;SDS011;37438;55.674;13.074;2023-02-11T05:58:09;25.42;;;3.88;;
20232;SDS011;37438;55.674;13.074;2023-02-11T06:01:13;28.75;;;5.10;;
20232;SDS011;37438;55.674;13.074;2023-02-11T06:04:18;36.03;;;4.18;;
20232;SDS011;37438;55.674;13.074;2023-02-11T06:07:22;21.77;;;2.72;;
20232;SDS011;37438;55.674;13.074;2023-02-11T06:10:27;24.83;;;4.47;;
20232;SDS011;37438;55.674;13.074;2023-02-11T06:13:31;21.03;;;3.57;;
20232;SDS011;37438;55.674;13.074;2023-02-11T06:16:35;25.90;;;3.43;;
20232;SDS011;37438;55.674;13.074;2023-02-11T06:19:40;17.27;;;3.30;;
20232;SDS011;37438;55.674;13.074;2023-02-11T06:22:44;25.85;;;4.38;;
20232;SDS011;37438;55.674;13.074;2023-02-11T06:25:48;17.50;;;3.40;;
20232;SDS011;37438;55.674;13.074;2023-02-11T06:28:54;26.27;;;2.85;;
20232;SDS011;37438;55.674;13.074;2023-02-11T06:31:58;19.90;;;2.55;;
20232;SDS011;37438;55.674;13.074;2023-02-11T06:35:03;25.45;;;4.45;;
20232;SDS011;37438;55.674;13.074;2023-02-11T06:38:07;24.15;;;3.95;;
20232;SDS011;37438;55.674;13.074;2023-02-11T06:41:12;26.88;;;5.10;;
20232;SDS011;37438;55.674;13.074;2023-02-11T06:44:19;22.35;;;3.92;;
20232;SDS011;37438;55.674;13.074;2023-02-11T06:47:23;19.50;;;3.70;;
20232;SDS011;37438;55.674;13.074;2023-02-11T06:50:28;29.83;;;3.55;;
20232;SDS011;37438;55.674;13.074;2023-02-11T06:53:34;22.23;;;4.00;;
20232;SDS011;37438;55.674;13.074;2023-02-11T06:56:40;30.52;;;3.85;;
20232;SDS011;37438;55.674;13.074;2023-02-11T06:59:45;11.63;;;2.90;;
20232;SDS011;37438;55.674;13.074;2023-02-11T07:02:49;23.77;;;4.05;;
20232;SDS011;37438;55.674;13.074;2023-02-11T07:05:53;17.07;;;3.43;;
20232;SDS011;37438;55.674;13.074;2023-02-11T07:08:57;22.07;;;3.53;;
20232;SDS011;37438;55.674;13.074;2023-02-11T07:12:02;21.42;;;2.72;;
20232;SDS011;37438;55.674;13.074;2023-02-11T07:15:07;16.83;;;3.22;;
20232;SDS011;37438;55.674;13.074;2023-02-11T07:18:12;22.10;;;2.92;;
20232;SDS011;37438;55.674;13.074;2023-02-11T07:21:18;20.58;;;3.20;;
20232;SDS011;37438;55.674;13.074;2023-02-11T07:24:24;24.08;;;4.22;;
20232;SDS011;37438;55.674;13.074;2023-02-11T07:27:29;13.15;;;3.50;;
20232;SDS011;37438;55.674;13.074;2023-02-11T07:30:33;17.43;;;3.10;;
20232;SDS011;37438;55.674;13.074;2023-02-11T07:33:37;19.80;;;3.10;;
20232;SDS011;37438;55.674;13.074;2023-02-11T07:36:43;21.85;;;2.90;;
20232;SDS011;37438;55.674;13.074;2023-02-11T07:39:48;29.05;;;5.18;;
20232;SDS011;37438;55.674;13.074;2023-02-11T07:42:52;27.42;;;4.05;;
20232;SDS011;37438;55.674;13.074;2023-02-11T07:45:57;22.85;;;3.28;;
20232;SDS011;37438;55.674;13.074;2023-02-11T07:49:01;15.93;;;2.75;;
20232;SDS011;37438;55.674;13.074;2023-02-11T07:52:06;23.65;;;3.13;;
20232;SDS011;37438;55.674;13.074;2023-02-11T07:55:11;20.30;;;3.97;;
20232;SDS011;37438;55.674;13.074;2023-02-11T07:58:15;19.87;;;4.23;;
20232;SDS011;37438;55.674;13.074;2023-02-11T08:01:20;19.52;;;4.80;;
20232;SDS011;37438;55.674;13.074;2023-02-11T08:04:28;34.83;;;5.63;;
20232;SDS011;37438;55.674;13.074;2023-02-11T08:07:32;26.85;;;4.28;;
20232;SDS011;37438;55.674;13.074;2023-02-11T08:10:37;23.40;;;3.30;;
20232;SDS011;37438;55.674;13.074;2023-02-11T08:13:42;21.52;;;3.30;;
20232;SDS011;37438;55.674;13.074;2023-02-11T08:19:51;13.23;;;2.20;;
20232;SDS011;37438;55.674;13.074;2023-02-11T08:22:56;20.25;;;2.47;;
20232;SDS011;37438;55.674;13.074;2023-02-11T08:26:04;23.80;;;4.10;;
20232;SDS011;37438;55.674;13.074;2023-02-11T08:29:13;18.75;;;2.28;;
20232;SDS011;37438;55.674;13.074;2023-02-11T08:32:19;17.13;;;2.70;;
20232;SDS011;37438;55.674;13.074;2023-02-11T08:35:24;16.15;;;2.88;;
20232;SDS011;37438;55.674;13.074;2023-02-11T08:38:28;22.70;;;3.80;;
20232;SDS011;37438;55.674;13.074;2023-02-11T08:41:33;18.98;;;3.25;;
20232;SDS011;37438;55.674;13.074;2023-02-11T08:44:38;27.63;;;3.40;;
20232;SDS011;37438;55.674;13.074;2023-02-11T08:47:42;20.73;;;3.25;;
20232;SDS011;37438;55.674;13.074;2023-02-11T08:50:46;19.13;;;3.05;;
20232;SDS011;37438;55.674;13.074;2023-02-11T08:53:52;21.95;;;3.88;;
20232;SDS011;37438;55.674;13.074;2023-02-11T08:56:58;23.60;;;3.90;;
20232;SDS011;37438;55.674;13.074;2023-02-11T09:00:05;22.77;;;3.53;;
20232;SDS011;37438;55.674;13.074;2023-02-11T09:06:15;23.27;;;4.32;;
20232;SDS011;37438;55.674;13.074;2023-02-11T09:09:21;19.73;;;3.50;;
20232;SDS011;37438;55.674;13.074;2023-02-11T09:12:25;22.80;;;3.20;;
20232;SDS011;37438;55.674;13.074;2023-02-11T09:15:29;32.28;;;4.43;;
20232;SDS011;37438;55.674;13.074;2023-02-11T09:21:38;22.45;;;3.70;;
20232;SDS011;37438;55.674;13.074;2023-02-11T09:24:43;30.83;;;3.40;;
20232;SDS011;37438;55.674;13.074;2023-02-11T09:27:47;24.98;;;5.07;;
20232;SDS011;37438;55.674;13.074;2023-02-11T09:30:52;26.88;;;5.25;;
20232;SDS011;37438;55.674;13.074;2023-02-11T09:33:59;23.10;;;4.03;;
20232;SDS011;37438;55.674;13.074;2023-02-11T09:37:04;23.42;;;3.97;;
20232;SDS011;37438;55.674;13.074;2023-02-11T09:40:09;28.65;;;4.07;;
20232;SDS011;37438;55.674;13.074;2023-02-11T09:43:19;28.58;;;3.75;;
20232;SDS011;37438;55.674;13.074;2023-02-11T09:46:29;28.48;;;5.40;;
20232;SDS011;37438;55.674;13.074;2023-02-11T09:49:43;24.45;;;3.72;;
20232;SDS011;37438;55.674;13.074;2023-02-11T09:56:16;24.15;;;4.25;;
20232;SDS011;37438;55.674;13.074;2023-02-11T09:59:20;22.85;;;4.70;;
20232;SDS011;37438;55.674;13.074;2023-02-11T10:02:31;22.45;;;4.60;;
20232;SDS011;37438;55.674;13.074;2023-02-11T10:05:55;29.83;;;3.83;;
20232;SDS011;37438;55.674;13.074;2023-02-11T10:16:00;21.10;;;3.65;;
20232;SDS011;37438;55.674;13.074;2023-02-11T10:19:09;26.63;;;4.25;;
20232;SDS011;37438;55.674;13.074;2023-02-11T10:22:24;24.00;;;5.03;;
20232;SDS011;37438;55.674;13.074;2023-02-11T10:25:38;23.88;;;5.20;;
20232;SDS011;37438;55.674;13.074;2023-02-11T10:28:49;31.90;;;6.07;;
20232;SDS011;37438;55.674;13.074;2023-02-11T10:31:56;34.33;;;5.78;;
20232;SDS011;37438;55.674;13.074;2023-02-11T10:35:03;40.17;;;7.22;;
20232;SDS011;37438;55.674;13.074;2023-02-11T10:38:18;34.75;;;8.38;;
20232;SDS011;37438;55.674;13.074;2023-02-11T10:41:24;20.85;;;3.38;;
20232;SDS011;37438;55.674;13.074;2023-02-11T10:44:46;37.53;;;5.20;;
20232;SDS011;37438;55.674;13.074;2023-02-11T10:48:02;29.92;;;5.60;;
20232;SDS011;37438;55.674;13.074;2023-02-11T10:54:18;34.83;;;6.57;;
20232;SDS011;37438;55.674;13.074;2023-02-11T10:57:25;25.33;;;4.22;;
20232;SDS011;37438;55.674;13.074;2023-02-11T11:00:45;29.15;;;5.88;;
20232;SDS011;37438;55.674;13.074;2023-02-11T11:03:56;27.13;;;6.43;;
20232;SDS011;37438;55.674;13.074;2023-02-11T11:07:19;27.67;;;6.15;;
20232;SDS011;37438;55.674;13.074;2023-02-11T11:10:41;25.42;;;5.72;;
20232;SDS011;37438;55.674;13.074;2023-02-11T11:17:01;35.70;;;6.35;;
20232;SDS011;37438;55.674;13.074;2023-02-11T11:20:13;35.17;;;5.72;;
20232;SDS011;37438;55.674;13.074;2023-02-11T11:23:21;50.88;;;8.00;;
20232;SDS011;37438;55.674;13.074;2023-02-11T11:26:43;28.52;;;6.35;;
20232;SDS011;37438;55.674;13.074;2023-02-11T11:32:58;31.13;;;5.65;;
20232;SDS011;37438;55.674;13.074;2023-02-11T11:36:05;38.03;;;7.57;;
20232;SDS011;37438;55.674;13.074;2023-02-11T11:39:19;36.88;;;8.43;;
20232;SDS011;37438;55.674;13.074;2023-02-11T11:45:34;37.80;;;6.40;;
20232;SDS011;37438;55.674;13.074;2023-02-11T11:48:39;24.02;;;5.25;;
20232;SDS011;37438;55.674;13.074;2023-02-11T11:52:32;29.13;;;5.72;;
20232;SDS011;37438;55.674;13.074;2023-02-11T11:55:43;41.13;;;8.63;;
20232;SDS011;37438;55.674;13.074;2023-02-11T11:58:50;31.25;;;5.72;;
20232;SDS011;37438;55.674;13.074;2023-02-11T12:02:00;34.47;;;5.22;;
20232;SDS011;37438;55.674;13.074;2023-02-11T12:11:51;29.25;;;6.35;;
20232;SDS011;37438;55.674;13.074;2023-02-11T12:22:25;40.05;;;8.02;;
20232;SDS011;37438;55.674;13.074;2023-02-11T12:25:42;31.58;;;6.40;;
20232;SDS011;37438;55.674;13.074;2023-02-11T12:36:01;29.80;;;5.35;;
20232;SDS011;37438;55.674;13.074;2023-02-11T12:42:56;36.17;;;6.97;;
20232;SDS011;37438;55.674;13.074;2023-02-11T12:46:37;35.58;;;6.13;;
20232;SDS011;37438;55.674;13.074;2023-02-11T13:03:58;35.25;;;8.10;;
20232;SDS011;37438;55.674;13.074;2023-02-11T13:07:18;34.50;;;5.93;;
20232;SDS011;37438;55.674;13.074;2023-02-11T13:10:33;34.30;;;6.22;;
20232;SDS011;37438;55.674;13.074;2023-02-11T13:17:15;27.95;;;6.97;;
20232;SDS011;37438;55.674;13.074;2023-02-11T13:20:37;33.03;;;6.15;;
20232;SDS011;37438;55.674;13.074;2023-02-11T13:24:04;34.53;;;7.25;;
20232;SDS011;37438;55.674;13.074;2023-02-11T13:28:00;36.05;;;7.50;;
20232;SDS011;37438;55.674;13.074;2023-02-11T13:30:43;33.13;;;7.80;;
20232;SDS011;37438;55.674;13.074;2023-02-11T13:33:55;36.05;;;8.27;;
20232;SDS011;37438;55.674;13.074;2023-02-11T13:36:59;34.53;;;6.57;;
20232;SDS011;37438;55.674;13.074;2023-02-11T13:43:25;25.80;;;6.35;;
20232;SDS011;37438;55.674;13.074;2023-02-11T13:46:50;30.70;;;7.45;;
20232;SDS011;37438;55.674;13.074;2023-02-11T13:49:58;33.50;;;7.25;;
20232;SDS011;37438;55.674;13.074;2023-02-11T13:53:05;28.92;;;6.82;;
20232;SDS011;37438;55.674;13.074;2023-02-11T13:56:22;24.15;;;7.47;;
20232;SDS011;37438;55.674;13.074;2023-02-11T14:02:39;26.42;;;6.65;;
20232;SDS011;37438;55.674;13.074;2023-02-11T14:09:36;27.75;;;5.72;;
20232;SDS011;37438;55.674;13.074;2023-02-11T14:13:03;30.10;;;7.03;;
20232;SDS011;37438;55.674;13.074;2023-02-11T14:16:25;25.45;;;6.43;;
20232;SDS011;37438;55.674;13.074;2023-02-11T14:22:50;25.67;;;6.53;;
20232;SDS011;37438;55.674;13.074;2023-02-11T14:25:59;35.72;;;7.97;;
20232;SDS011;37438;55.674;13.074;2023-02-11T14:36:04;38.22;;;8.32;;
20232;SDS011;37438;55.674;13.074;2023-02-11T14:43:11;40.50;;;8.52;;
20232;SDS011;37438;55.674;13.074;2023-02-11T14:46:21;42.00;;;8.90;;
20232;SDS011;37438;55.674;13.074;2023-02-11T14:49:32;37.92;;;8.85;;
20232;SDS011;37438;55.674;13.074;2023-02-11T14:52:40;39.65;;;8.98;;
20232;SDS011;37438;55.674;13.074;2023-02-11T14:55:47;39.03;;;8.77;;
20232;SDS011;37438;55.674;13.074;2023-02-11T14:58:54;42.28;;;8.07;;
20232;SDS011;37438;55.674;13.074;2023-02-11T15:05:13;44.05;;;7.80;;
20232;SDS011;37438;55.674;13.074;2023-02-11T15:08:20;42.47;;;6.90;;
20232;SDS011;37438;55.674;13.074;2023-02-11T15:11:24;51.55;;;7.45;;
20232;SDS011;37438;55.674;13.074;2023-02-11T15:14:32;33.85;;;7.38;;
20232;SDS011;37438;55.674;13.074;2023-02-11T15:17:38;49.17;;;7.53;;
20232;SDS011;37438;55.674;13.074;2023-02-11T15:20:44;39.45;;;7.80;;
20232;SDS011;37438;55.674;13.074;2023-02-11T15:23:54;33.70;;;7.50;;
20232;SDS011;37438;55.674;13.074;2023-02-11T15:27:23;41.22;;;8.32;;
20232;SDS011;37438;55.674;13.074;2023-02-11T15:30:30;47.25;;;8.35;;
20232;SDS011;37438;55.674;13.074;2023-02-11T15:33:36;44.08;;;9.07;;
20232;SDS011;37438;55.674;13.074;2023-02-11T15:36:41;45.95;;;7.53;;
20232;SDS011;37438;55.674;13.074;2023-02-11T15:39:46;40.22;;;6.85;;
20232;SDS011;37438;55.674;13.074;2023-02-11T15:46:01;40.35;;;7.35;;
20232;SDS011;37438;55.674;13.074;2023-02-11T15:49:12;48.30;;;8.02;;
20232;SDS011;37438;55.674;13.074;2023-02-11T15:52:22;37.90;;;7.95;;
20232;SDS011;37438;55.674;13.074;2023-02-11T15:55:29;54.08;;;7.32;;
20232;SDS011;37438;55.674;13.074;2023-02-11T15:58:34;63.55;;;9.93;;
20232;SDS011;37438;55.674;13.074;2023-02-11T16:01:41;44.20;;;7.47;;
20232;SDS011;37438;55.674;13.074;2023-02-11T16:04:52;46.92;;;8.40;;
20232;SDS011;37438;55.674;13.074;2023-02-11T16:07:59;50.53;;;8.80;;
20232;SDS011;37438;55.674;13.074;2023-02-11T16:11:23;48.53;;;7.82;;
20232;SDS011;37438;55.674;13.074;2023-02-11T16:14:34;46.25;;;9.68;;
20232;SDS011;37438;55.674;13.074;2023-02-11T16:17:39;66.88;;;10.27;;
20232;SDS011;37438;55.674;13.074;2023-02-11T16:20:47;41.95;;;8.00;;
20232;SDS011;37438;55.674;13.074;2023-02-11T16:23:53;54.72;;;10.40;;
20232;SDS011;37438;55.674;13.074;2023-02-11T16:27:01;63.13;;;9.60;;
20232;SDS011;37438;55.674;13.074;2023-02-11T16:33:25;63.53;;;10.32;;
20232;SDS011;37438;55.674;13.074;2023-02-11T16:36:29;51.67;;;9.05;;
20232;SDS011;37438;55.674;13.074;2023-02-11T16:39:34;65.30;;;11.20;;
20232;SDS011;37438;55.674;13.074;2023-02-11T16:42:39;52.65;;;8.60;;
20232;SDS011;37438;55.674;13.074;2023-02-11T16:45:44;42.00;;;8.38;;
20232;SDS011;37438;55.674;13.074;2023-02-11T16:51:55;57.95;;;8.05;;
20232;SDS011;37438;55.674;13.074;2023-02-11T16:55:03;66.68;;;8.45;;
20232;SDS011;37438;55.674;13.074;2023-02-11T16:58:09;50.55;;;7.88;;
20232;SDS011;37438;55.674;13.074;2023-02-11T17:01:13;47.88;;;7.85;;
20232;SDS011;37438;55.674;13.074;2023-02-11T17:04:19;56.28;;;7.97;;
20232;SDS011;37438;55.674;13.074;2023-02-11T17:07:30;48.58;;;8.30;;
20232;SDS011;37438;55.674;13.074;2023-02-11T17:13:40;65.05;;;9.10;;
20232;SDS011;37438;55.674;13.074;2023-02-11T17:16:45;47.80;;;6.55;;
20232;SDS011;37438;55.674;13.074;2023-02-11T17:19:51;45.08;;;8.68;;
20232;SDS011;37438;55.674;13.074;2023-02-11T17:22:55;61.40;;;9.25;;
20232;SDS011;37438;55.674;13.074;2023-02-11T17:26:00;64.25;;;7.72;;
20232;SDS011;37438;55.674;13.074;2023-02-11T17:29:05;45.55;;;7.07;;
20232;SDS011;37438;55.674;13.074;2023-02-11T17:32:10;62.50;;;8.40;;
20232;SDS011;37438;55.674;13.074;2023-02-11T17:35:15;44.97;;;9.55;;
20232;SDS011;37438;55.674;13.074;2023-02-11T17:38:20;68.22;;;9.70;;
20232;SDS011;37438;55.674;13.074;2023-02-11T17:41:25;59.85;;;9.77;;
20232;SDS011;37438;55.674;13.074;2023-02-11T17:44:29;79.13;;;12.55;;
20232;SDS011;37438;55.674;13.074;2023-02-11T17:47:34;59.65;;;9.02;;
20232;SDS011;37438;55.674;13.074;2023-02-11T17:50:39;73.95;;;10.18;;
20232;SDS011;37438;55.674;13.074;2023-02-11T17:53:43;69.43;;;12.07;;
20232;SDS011;37438;55.674;13.074;2023-02-11T17:56:49;72.35;;;9.98;;
20232;SDS011;37438;55.674;13.074;2023-02-11T17:59:54;61.30;;;9.45;;
20232;SDS011;37438;55.674;13.074;2023-02-11T18:02:58;56.15;;;8.95;;
20232;SDS011;37438;55.674;13.074;2023-02-11T18:06:06;59.55;;;9.43;;
20232;SDS011;37438;55.674;13.074;2023-02-11T18:09:11;68.80;;;10.27;;
20232;SDS011;37438;55.674;13.074;2023-02-11T18:12:15;77.18;;;11.77;;
20232;SDS011;37438;55.674;13.074;2023-02-11T18:15:27;73.07;;;9.88;;
20232;SDS011;37438;55.674;13.074;2023-02-11T18:18:31;53.63;;;8.25;;
20232;SDS011;37438;55.674;13.074;2023-02-11T18:21:36;70.38;;;10.98;;
20232;SDS011;37438;55.674;13.074;2023-02-11T18:24:41;85.57;;;11.30;;
20232;SDS011;37438;55.674;13.074;2023-02-11T18:30:57;93.85;;;15.77;;
20232;SDS011;37438;55.674;13.074;2023-02-11T18:34:03;95.88;;;15.05;;
20232;SDS011;37438;55.674;13.074;2023-02-11T18:37:10;79.97;;;15.40;;
20232;SDS011;37438;55.674;13.074;2023-02-11T18:40:17;60.83;;;9.15;;
20232;SDS011;37438;55.674;13.074;2023-02-11T18:43:21;62.22;;;9.88;;
20232;SDS011;37438;55.674;13.074;2023-02-11T18:46:25;74.47;;;10.33;;
20232;SDS011;37438;55.674;13.074;2023-02-11T18:49:30;59.30;;;11.87;;
20232;SDS011;37438;55.674;13.074;2023-02-11T18:52:35;61.53;;;7.60;;
20232;SDS011;37438;55.674;13.074;2023-02-11T18:55:42;63.83;;;8.38;;
20232;SDS011;37438;55.674;13.074;2023-02-11T18:58:47;70.25;;;7.85;;
20232;SDS011;37438;55.674;13.074;2023-02-11T19:01:54;58.83;;;7.70;;
20232;SDS011;37438;55.674;13.074;2023-02-11T19:04:58;64.00;;;9.60;;
20232;SDS011;37438;55.674;13.074;2023-02-11T19:08:02;79.17;;;13.00;;
20232;SDS011;37438;55.674;13.074;2023-02-11T19:11:07;63.07;;;9.13;;
20232;SDS011;37438;55.674;13.074;2023-02-11T19:14:12;55.95;;;8.00;;
20232;SDS011;37438;55.674;13.074;2023-02-11T19:17:17;61.78;;;9.57;;
20232;SDS011;37438;55.674;13.074;2023-02-11T19:20:22;57.70;;;11.35;;
20232;SDS011;37438;55.674;13.074;2023-02-11T19:23:26;67.82;;;11.07;;
20232;SDS011;37438;55.674;13.074;2023-02-11T19:26:31;66.40;;;10.03;;
20232;SDS011;37438;55.674;13.074;2023-02-11T19:29:35;57.58;;;10.00;;
20232;SDS011;37438;55.674;13.074;2023-02-11T19:32:40;49.05;;;9.80;;
20232;SDS011;37438;55.674;13.074;2023-02-11T19:35:44;62.23;;;7.77;;
20232;SDS011;37438;55.674;13.074;2023-02-11T19:38:49;67.43;;;8.90;;
20232;SDS011;37438;55.674;13.074;2023-02-11T19:41:54;67.13;;;8.85;;
20232;SDS011;37438;55.674;13.074;2023-02-11T19:44:58;46.80;;;7.30;;
20232;SDS011;37438;55.674;13.074;2023-02-11T19:48:02;44.63;;;5.33;;
20232;SDS011;37438;55.674;13.074;2023-02-11T19:51:08;69.75;;;9.10;;
20232;SDS011;37438;55.674;13.074;2023-02-11T19:54:16;60.10;;;10.00;;
20232;SDS011;37438;55.674;13.074;2023-02-11T19:57:21;82.22;;;11.95;;
20232;SDS011;37438;55.674;13.074;2023-02-11T20:00:26;77.60;;;10.07;;
20232;SDS011;37438;55.674;13.074;2023-02-11T20:03:31;65.25;;;9.48;;
20232;SDS011;37438;55.674;13.074;2023-02-11T20:06:35;89.00;;;11.83;;
20232;SDS011;37438;55.674;13.074;2023-02-11T20:09:40;67.45;;;8.43;;
20232;SDS011;37438;55.674;13.074;2023-02-11T20:12:45;63.15;;;8.65;;
20232;SDS011;37438;55.674;13.074;2023-02-11T20:15:50;68.55;;;8.15;;
20232;SDS011;37438;55.674;13.074;2023-02-11T20:18:54;78.57;;;10.68;;
20232;SDS011;37438;55.674;13.074;2023-02-11T20:21:59;60.63;;;9.10;;
20232;SDS011;37438;55.674;13.074;2023-02-11T20:25:03;63.80;;;9.30;;
20232;SDS011;37438;55.674;13.074;2023-02-11T20:31:13;68.53;;;9.50;;
20232;SDS011;37438;55.674;13.074;2023-02-11T20:34:18;60.72;;;11.15;;
20232;SDS011;37438;55.674;13.074;2023-02-11T20:37:24;73.93;;;10.98;;
20232;SDS011;37438;55.674;13.074;2023-02-11T20:40:29;86.87;;;11.67;;
20232;SDS011;37438;55.674;13.074;2023-02-11T20:43:33;70.50;;;10.77;;
20232;SDS011;37438;55.674;13.074;2023-02-11T20:46:41;67.47;;;8.95;;
20232;SDS011;37438;55.674;13.074;2023-02-11T20:49:49;95.82;;;11.02;;